Time;durP1;ratioP1;P1;durP2;ratioP2;P2;SDS_P1;SDS_P2;PMS_P1;PMS_P2;Temp;Humidity;BMP_temperature;BMP_pressure;BME280_temperature;BME280_humidity;BME280_pressure;Samples;Min_cycle;Max_cycle;Signal;HPM_P1;HPM_P2
2022/09/14 00:00:12;;;;;;;12.55;1.58;;;;;;;19.48;54.10;100409.38;5029655;27;101989;-68
2022/09/14 00:02:38;;;;;;;9.75;1.52;;;;;;;19.40;53.99;100409.06;5030147;28;98920;-68
2022/09/14 00:05:06;;;;;;;7.85;2.20;;;;;;;19.30;54.15;100410.75;5029591;28;97134;-69
2022/09/14 00:07:32;;;;;;;12.35;1.63;;;;;;;19.42;53.80;100413.34;5028081;28;96849;-68
2022/09/14 00:10:00;;;;;;;9.82;1.90;;;;;;;19.42;54.05;100407.13;5029486;27;99058;-69
2022/09/14 00:12:27;;;;;;;8.18;1.67;;;;;;;19.58;53.33;100401.44;5032267;28;99252;-69
2022/09/14 00:14:56;;;;;;;9.35;1.67;;;;;;;19.46;53.19;100395.22;5031037;28;98568;-68
2022/09/14 00:17:22;;;;;;;10.32;1.00;;;;;;;19.43;53.31;100398.97;5034352;28;96913;-68
2022/09/14 00:19:49;;;;;;;6.18;1.20;;;;;;;19.18;54.46;100396.47;5033720;28;98884;-68
2022/09/14 00:22:16;;;;;;;6.47;1.20;;;;;;;19.48;53.44;100394.16;5034035;28;98882;-67
2022/09/14 00:24:45;;;;;;;5.53;0.98;;;;;;;19.19;54.28;100389.28;5032872;28;96844;-69
2022/09/14 00:27:13;;;;;;;5.75;1.45;;;;;;;19.14;53.87;100386.97;5034340;27;97502;-70
2022/09/14 00:29:39;;;;;;;9.20;1.40;;;;;;;19.31;53.44;100383.84;5034571;28;98963;-68
2022/09/14 00:32:05;;;;;;;6.38;1.45;;;;;;;19.05;54.93;100387.66;5033369;27;98983;-68
2022/09/14 00:34:33;;;;;;;6.93;0.98;;;;;;;19.10;54.48;100378.31;5033533;28;96987;-69
2022/09/14 00:37:02;;;;;;;3.47;0.95;;;;;;;19.20;54.46;100381.13;5033863;27;96862;-68
2022/09/14 00:39:29;;;;;;;6.25;1.15;;;;;;;19.22;54.40;100384.56;5029712;27;99096;-68
2022/09/14 00:41:58;;;;;;;4.78;1.00;;;;;;;19.15;54.38;100377.97;5034360;27;98884;-68
2022/09/14 00:45:02;;;;;;;10.02;1.58;;;;;;;19.31;53.56;100373.13;5030228;28;98142;-68
2022/09/14 00:47:32;;;;;;;5.88;1.33;;;;;;;18.97;54.35;100376.72;5028034;28;97240;-65
2022/09/14 00:50:04;;;;;;;5.22;1.00;;;;;;;19.05;54.57;100382.31;5032019;28;99914;-68
2022/09/14 00:52:32;;;;;;;4.93;1.00;;;;;;;19.14;54.07;100370.91;5032624;28;99369;-65
2022/09/14 00:55:02;;;;;;;4.07;1.00;;;;;;;19.10;54.28;100367.59;5031834;27;96745;-64
2022/09/14 00:57:33;;;;;;;8.13;1.40;;;;;;;19.10;54.45;100361.38;5031511;28;99099;-65
2022/09/14 01:00:02;;;;;;;10.15;1.30;;;;;;;19.08;54.48;100352.63;5031853;28;101761;-64
2022/09/14 01:02:34;;;;;;;5.90;1.00;;;;;;;19.06;54.15;100354.56;5033999;28;98995;-68
2022/09/14 01:05:01;;;;;;;6.88;1.30;;;;;;;19.13;54.59;100347.78;5033189;28;96799;-68
2022/09/14 01:07:49;;;;;;;7.65;1.08;;;;;;;18.98;55.50;100354.28;5031907;28;97874;-68
2022/09/14 01:10:31;;;;;;;5.78;1.08;;;;;;;19.12;55.36;100354.09;5034008;28;98707;-70
2022/09/14 01:13:12;;;;;;;5.88;1.05;;;;;;;19.00;55.07;100353.22;5031978;28;98777;-67
2022/09/14 01:15:50;;;;;;;5.97;1.20;;;;;;;19.22;54.22;100341.72;5032073;27;97329;-68
2022/09/14 01:18:23;;;;;;;7.32;1.00;;;;;;;18.98;55.29;100346.25;5031214;28;97141;-67
2022/09/14 01:20:57;;;;;;;9.95;1.02;;;;;;;18.99;55.22;100345.28;5031063;28;97245;-68
2022/09/14 01:23:33;;;;;;;8.23;1.20;;;;;;;18.96;55.11;100337.50;5030727;27;98543;-67
2022/09/14 01:26:31;;;;;;;7.03;1.05;;;;;;;18.97;55.11;100347.25;5032466;28;97110;-68
2022/09/14 01:29:07;;;;;;;9.10;1.33;;;;;;;18.77;56.07;100345.25;5031793;28;96762;-68
2022/09/14 01:31:38;;;;;;;8.88;1.20;;;;;;;18.84;56.12;100346.47;5033176;28;99707;-68
2022/09/14 01:34:09;;;;;;;9.35;1.20;;;;;;;19.02;55.02;100348.59;5033525;27;98977;-67
2022/09/14 01:36:40;;;;;;;7.50;1.58;;;;;;;18.74;56.21;100350.81;5031890;28;96907;-68
2022/09/14 01:39:08;;;;;;;9.32;1.52;;;;;;;18.60;56.46;100355.38;5034615;27;97288;-68
2022/09/14 01:41:36;;;;;;;5.40;1.13;;;;;;;18.55;56.78;100341.50;5031352;28;100712;-67
2022/09/14 01:44:09;;;;;;;12.40;1.65;;;;;;;18.47;56.95;100340.31;5032975;28;98937;-68
2022/09/14 01:46:42;;;;;;;13.07;2.10;;;;;;;18.55;56.96;100341.50;5032808;27;98492;-67
2022/09/14 01:49:14;;;;;;;11.60;1.63;;;;;;;18.57;56.67;100344.06;5032168;28;96775;-67
2022/09/14 01:51:46;;;;;;;10.48;1.35;;;;;;;18.49;57.25;100352.63;5026365;28;98875;-68
2022/09/14 01:54:18;;;;;;;6.25;1.15;;;;;;;18.50;57.15;100351.66;5033157;28;98975;-68
2022/09/14 01:56:51;;;;;;;4.65;1.45;;;;;;;18.47;57.06;100354.56;5032457;28;96918;-66
2022/09/14 01:59:23;;;;;;;9.52;1.27;;;;;;;18.57;56.83;100355.63;5029063;28;96850;-67
2022/09/14 02:01:53;;;;;;;9.45;0.90;;;;;;;18.22;57.57;100363.53;5032757;28;99222;-69
2022/09/14 02:04:29;;;;;;;6.28;1.25;;;;;;;18.50;57.05;100354.34;5026936;28;98802;-68
2022/09/14 02:06:56;;;;;;;8.83;1.30;;;;;;;18.57;56.99;100355.63;5033617;27;97083;-67
2022/09/14 02:09:26;;;;;;;16.23;1.80;;;;;;;18.61;56.96;100361.59;5032628;28;96936;-68
2022/09/14 02:11:54;;;;;;;13.05;1.58;;;;;;;18.52;56.88;100352.38;5032015;27;99529;-69
2022/09/14 02:14:24;;;;;;;10.45;1.20;;;;;;;18.32;57.60;100353.00;5030947;27;99214;-67
2022/09/14 02:16:52;;;;;;;5.78;1.17;;;;;;;18.54;56.80;100345.09;5031334;27;96699;-67
2022/09/14 02:19:23;;;;;;;7.35;1.30;;;;;;;18.38;57.34;100349.88;5028183;28;96774;-68
2022/09/14 02:21:49;;;;;;;5.95;1.65;;;;;;;18.39;57.47;100358.75;5031050;27;99315;-68
2022/09/14 02:24:17;;;;;;;5.85;1.10;;;;;;;18.48;57.04;100352.72;5031652;27;97457;-67
2022/09/14 02:26:43;;;;;;;5.57;1.33;;;;;;;18.42;57.76;100353.19;5032012;27;96832;-66
2022/09/14 02:29:09;;;;;;;8.68;1.50;;;;;;;18.39;57.61;100354.25;5031669;28;97068;-67
2022/09/14 02:31:53;;;;;;;10.43;1.30;;;;;;;18.59;57.09;100360.84;5028499;28;102273;-67
2022/09/14 02:34:27;;;;;;;5.38;1.15;;;;;;;18.60;57.18;100352.69;5029500;27;99159;-70
2022/09/14 02:37:01;;;;;;;7.57;1.63;;;;;;;18.51;57.33;100349.84;5030435;28;96817;-66
2022/09/14 02:39:39;;;;;;;7.57;1.50;;;;;;;18.33;57.81;100344.00;5030538;28;96891;-67
2022/09/14 02:42:16;;;;;;;7.07;1.30;;;;;;;18.34;57.60;100337.69;5031905;28;99091;-66
2022/09/14 02:44:53;;;;;;;9.27;1.25;;;;;;;18.37;57.47;100339.31;5029698;28;100402;-68
2022/09/14 02:47:24;;;;;;;;;;;;;;;18.34;57.60;100335.03;5031357;28;96854;-67
2022/09/14 02:50:02;;;;;;;8.55;1.10;;;;;;;18.43;57.66;100334.34;5030595;28;97154;-66
2022/09/14 02:52:36;;;;;;;12.95;1.80;;;;;;;18.30;57.92;100331.75;5029345;28;98340;-66
2022/09/14 02:55:09;;;;;;;8.80;1.48;;;;;;;18.53;57.62;100330.00;5030205;28;99305;-67
2022/09/14 02:58:01;;;;;;;15.27;1.67;;;;;;;18.47;57.64;100334.97;5029572;27;97453;-67
2022/09/14 03:00:30;;;;;;;7.20;1.17;;;;;;;18.29;58.20;100334.50;5029783;28;96930;-67
2022/09/14 03:02:58;;;;;;;8.80;1.63;;;;;;;18.30;58.30;100330.88;5031108;27;99219;-67
2022/09/14 03:05:25;;;;;;;5.68;1.20;;;;;;;18.25;58.43;100335.69;5031496;28;98950;-67
2022/09/14 03:07:54;;;;;;;7.95;1.20;;;;;;;18.18;58.99;100326.44;5031388;27;96879;-67
2022/09/14 03:10:20;;;;;;;8.57;1.45;;;;;;;18.33;58.55;100331.50;5031376;28;96782;-67
2022/09/14 03:12:47;;;;;;;7.55;1.02;;;;;;;18.19;58.29;100326.31;5030873;28;100117;-68
2022/09/14 03:15:13;;;;;;;6.07;1.10;;;;;;;18.43;57.96;100331.69;5031716;27;99151;-67
2022/09/14 03:17:40;;;;;;;7.55;1.85;;;;;;;18.18;58.25;100337.13;5031230;28;97048;-67
2022/09/14 03:20:09;;;;;;;10.00;1.20;;;;;;;18.22;58.10;100335.94;5032506;27;96819;-67
2022/09/14 03:22:36;;;;;;;11.48;1.50;;;;;;;18.19;58.23;100336.16;5027015;28;100164;-67
2022/09/14 03:25:03;;;;;;;7.03;1.25;;;;;;;18.25;58.08;100343.72;5030263;27;98106;-67
2022/09/14 03:27:29;;;;;;;7.47;1.20;;;;;;;18.21;58.41;100331.53;5021087;27;97547;-69
2022/09/14 03:29:55;;;;;;;8.57;1.45;;;;;;;18.28;58.21;100335.47;5027099;27;96973;-67
2022/09/14 03:32:22;;;;;;;6.22;1.73;;;;;;;18.26;57.97;100327.56;5033796;27;99102;-67
2022/09/14 03:34:48;;;;;;;7.97;1.60;;;;;;;18.39;57.65;100330.19;5031239;27;98914;-67
2022/09/14 03:37:16;;;;;;;6.70;1.50;;;;;;;18.33;57.98;100322.63;5031554;27;96694;-67
2022/09/14 03:39:45;;;;;;;9.32;1.33;;;;;;;18.19;58.72;100328.13;5032153;28;97281;-67
2022/09/14 03:42:12;;;;;;;10.20;1.52;;;;;;;18.29;58.47;100315.78;5027758;27;100982;-67
2022/09/14 03:44:38;;;;;;;8.88;1.58;;;;;;;18.37;58.21;100317.91;5031279;27;99194;-67
2022/09/14 03:47:07;;;;;;;8.68;1.83;;;;;;;18.40;58.15;100323.88;5033914;27;96857;-67
2022/09/14 03:49:34;;;;;;;8.65;1.55;;;;;;;18.17;58.67;100319.38;5035624;27;96903;-68
2022/09/14 03:52:00;;;;;;;10.50;1.30;;;;;;;18.33;58.40;100319.94;5033083;27;99087;-66
2022/09/14 03:54:28;;;;;;;6.78;2.20;;;;;;;18.16;58.68;100313.19;5034933;28;99222;-66
2022/09/14 03:56:55;;;;;;;8.13;1.63;;;;;;;18.47;57.93;100311.75;5033653;27;98434;-67
2022/09/14 03:59:22;;;;;;;8.07;1.63;;;;;;;18.14;58.81;100312.44;5035069;28;96760;-68
2022/09/14 04:01:49;;;;;;;5.75;1.73;;;;;;;18.25;58.51;100306.28;5033048;28;98946;-68
2022/09/14 04:04:16;;;;;;;7.05;1.52;;;;;;;17.82;59.84;100309.44;5033836;28;99520;-70
2022/09/14 04:06:44;;;;;;;11.15;1.60;;;;;;;17.97;59.36;100318.16;5033630;27;96832;-68
2022/09/14 04:09:10;;;;;;;6.97;1.35;;;;;;;18.25;58.54;100314.28;5034981;28;96913;-67
2022/09/14 04:11:41;;;;;;;13.05;1.60;;;;;;;18.10;58.92;100318.13;5034831;28;99144;-68
2022/09/14 04:14:07;;;;;;;7.88;1.10;;;;;;;18.13;58.79;100317.88;5034131;27;99967;-70
2022/09/14 04:16:34;;;;;;;5.72;1.50;;;;;;;18.00;59.29;100327.75;5034621;28;96853;-68
2022/09/14 04:19:00;;;;;;;4.35;1.20;;;;;;;18.10;58.84;100337.69;5034344;27;97168;-69
2022/09/14 04:21:28;;;;;;;10.23;2.17;;;;;;;18.03;58.75;100332.91;5033573;27;99807;-72
2022/09/14 04:24:00;;;;;;;6.55;2.30;;;;;;;17.95;59.03;100327.25;5033673;27;98800;-67
2022/09/14 04:26:30;;;;;;;11.10;1.98;;;;;;;17.98;59.25;100325.22;5034519;28;96799;-69
2022/09/14 04:28:59;;;;;;;8.88;1.70;;;;;;;18.14;58.78;100315.09;5033426;27;98609;-69
2022/09/14 04:31:28;;;;;;;6.95;1.83;;;;;;;18.09;58.75;100311.91;5034136;28;98968;-69
2022/09/14 04:33:58;;;;;;;8.90;1.40;;;;;;;17.75;60.20;100312.66;5033127;27;97696;-68
2022/09/14 04:36:29;;;;;;;2.63;1.08;;;;;;;18.26;58.42;100313.34;5034876;28;96801;-69
2022/09/14 04:39:00;;;;;;;11.52;1.85;;;;;;;18.10;58.63;100318.97;5033749;27;96786;-68
2022/09/14 04:41:28;;;;;;;8.93;1.73;;;;;;;18.26;58.18;100316.00;5034121;28;99083;-68
2022/09/14 04:43:56;;;;;;;14.50;1.48;;;;;;;18.20;58.25;100311.97;5032620;27;99006;-68
2022/09/14 04:46:33;;;;;;;9.30;1.70;;;;;;;18.14;58.66;100324.94;5031310;27;98728;-69
2022/09/14 04:49:00;;;;;;;4.70;1.38;;;;;;;18.17;58.36;100319.38;5034612;27;97111;-67
2022/09/14 04:51:29;;;;;;;7.20;1.92;;;;;;;18.16;58.40;100305.16;5032694;27;99268;-68
2022/09/14 04:53:58;;;;;;;7.60;2.17;;;;;;;17.97;59.07;100314.63;5034152;28;99687;-67
2022/09/14 04:56:26;;;;;;;8.88;1.95;;;;;;;18.25;58.05;100308.94;5031343;27;97098;-69
2022/09/14 04:58:55;;;;;;;4.95;1.40;;;;;;;18.39;57.63;100308.78;5034619;28;97040;-68
2022/09/14 05:01:23;;;;;;;6.53;1.70;;;;;;;18.57;57.26;100309.28;5033398;28;99315;-68
2022/09/14 05:03:52;;;;;;;7.70;2.25;;;;;;;18.32;57.99;100305.72;5033563;28;98951;-69
2022/09/14 05:06:20;;;;;;;5.43;1.70;;;;;;;18.39;57.67;100295.41;5031565;27;96881;-68
2022/09/14 05:08:47;;;;;;;7.07;1.70;;;;;;;18.46;57.23;100299.31;5033138;28;97178;-67
2022/09/14 05:11:16;;;;;;;6.57;1.80;;;;;;;18.44;57.23;100293.25;5032429;27;99135;-68
2022/09/14 05:13:43;;;;;;;9.93;1.90;;;;;;;18.38;57.42;100301.72;5033789;28;99008;-68
2022/09/14 05:16:14;;;;;;;10.57;1.95;;;;;;;18.40;57.21;100294.44;5029472;27;97025;-68
2022/09/14 05:18:41;;;;;;;7.05;1.42;;;;;;;18.59;56.99;100296.63;5031942;27;96841;-68
2022/09/14 05:21:11;;;;;;;6.65;1.75;;;;;;;18.40;57.29;100297.13;5033816;28;99339;-70
2022/09/14 05:23:41;;;;;;;5.63;1.48;;;;;;;18.35;57.32;100307.31;5033564;27;98980;-71
2022/09/14 05:26:07;;;;;;;7.93;1.85;;;;;;;18.43;57.49;100314.78;5033444;28;97520;-69
2022/09/14 05:28:35;;;;;;;9.65;2.20;;;;;;;18.31;57.98;100306.66;5034320;27;96879;-69
2022/09/14 05:31:04;;;;;;;11.32;1.85;;;;;;;18.63;56.80;100292.75;5032572;27;99399;-69
2022/09/14 05:33:36;;;;;;;6.40;1.92;;;;;;;18.69;56.80;100295.81;5032389;28;99021;-68
2022/09/14 05:36:05;;;;;;;8.45;1.80;;;;;;;18.64;56.71;100306.00;5033230;27;96837;-69
2022/09/14 05:38:35;;;;;;;5.47;1.60;;;;;;;18.63;56.83;100307.00;5029261;27;97393;-69
2022/09/14 05:41:08;;;;;;;6.03;1.42;;;;;;;18.70;56.78;100304.69;5031186;28;99250;-69
2022/09/14 05:43:36;;;;;;;10.05;1.80;;;;;;;18.50;57.05;100303.50;5032748;27;99233;-68
2022/09/14 05:46:04;;;;;;;7.65;1.60;;;;;;;18.74;56.32;100303.50;5031755;28;97062;-67
2022/09/14 05:48:30;;;;;;;9.32;1.65;;;;;;;19.01;55.58;100290.66;5033286;27;96841;-68
2022/09/14 05:50:58;;;;;;;10.40;1.88;;;;;;;18.94;56.04;100293.94;5030769;28;98683;-68
2022/09/14 05:53:28;;;;;;;13.43;1.92;;;;;;;19.00;55.95;100299.66;5033446;27;98922;-68
2022/09/14 05:56:04;;;;;;;10.70;1.92;;;;;;;18.79;56.12;100303.13;5031106;28;97095;-68
2022/09/14 05:58:37;;;;;;;7.47;1.70;;;;;;;18.84;56.04;100300.97;5031653;27;96860;-65
2022/09/14 06:01:08;;;;;;;12.93;1.63;;;;;;;18.95;56.01;100295.63;5025455;27;101245;-68
2022/09/14 06:03:35;;;;;;;8.40;1.50;;;;;;;18.88;55.59;100286.38;5019918;27;98190;-68
2022/09/14 06:06:02;;;;;;;11.02;1.33;;;;;;;18.80;56.23;100288.78;5023796;27;97645;-68
2022/09/14 06:08:28;;;;;;;7.22;1.40;;;;;;;18.83;56.19;100285.88;5025034;27;96876;-68
2022/09/14 06:10:55;;;;;;;6.05;1.83;;;;;;;18.79;55.89;100281.72;5030118;27;97237;-68
2022/09/14 06:13:24;;;;;;;10.50;2.22;;;;;;;18.73;56.46;100285.72;5031622;27;100557;-71
2022/09/14 06:15:50;;;;;;;7.45;1.50;;;;;;;19.01;55.79;100281.78;5031261;27;98727;-68
2022/09/14 06:18:17;;;;;;;10.30;2.33;;;;;;;18.86;55.89;100275.78;5030914;27;97532;-68
2022/09/14 06:20:50;;;;;;;7.20;1.80;;;;;;;18.56;57.05;100279.00;5029424;27;98943;-68
2022/09/14 06:23:18;;;;;;;8.10;1.80;;;;;;;18.77;56.62;100273.81;5026493;27;99221;-69
2022/09/14 06:25:47;;;;;;;13.60;2.58;;;;;;;18.74;56.38;100271.38;5030179;27;97194;-69
2022/09/14 06:28:14;;;;;;;15.35;1.80;;;;;;;18.78;56.47;100269.31;5023944;27;97338;-68
2022/09/14 06:30:44;;;;;;;11.05;1.90;;;;;;;18.91;56.25;100268.22;5027605;28;99489;-69
2022/09/14 06:33:10;;;;;;;13.82;2.20;;;;;;;18.95;56.26;100271.53;5027228;27;97394;-68
2022/09/14 06:35:37;;;;;;;7.13;1.48;;;;;;;18.70;56.67;100270.78;5024537;27;96819;-69
2022/09/14 06:38:03;;;;;;;7.13;1.60;;;;;;;18.81;56.47;100267.25;5026986;27;97343;-72
2022/09/14 06:40:29;;;;;;;12.13;1.70;;;;;;;18.81;55.82;100269.06;5023396;27;99070;-69
2022/09/14 06:43:00;;;;;;;14.23;3.42;;;;;;;19.11;55.40;100269.34;5028862;27;97536;-67
2022/09/14 06:45:28;;;;;;;22.63;2.75;;;;;;;19.01;55.78;100263.03;5022880;27;98809;-69
2022/09/14 06:47:56;;;;;;;18.85;2.95;;;;;;;19.18;55.18;100267.91;5031709;27;96844;-68
2022/09/14 06:50:23;;;;;;;9.73;2.45;;;;;;;19.21;55.20;100273.03;5026862;27;97851;-68
2022/09/14 06:52:52;;;;;;;17.10;3.47;;;;;;;19.33;55.09;100266.72;5030983;28;102692;-69
2022/09/14 06:55:21;;;;;;;6.78;2.35;;;;;;;19.25;55.09;100270.97;5030435;27;96849;-68
2022/09/14 06:57:48;;;;;;;13.15;2.85;;;;;;;18.97;56.19;100266.94;5030877;27;96699;-69
2022/09/14 07:00:15;;;;;;;11.13;2.03;;;;;;;19.21;55.62;100265.00;5028670;27;99053;-68
2022/09/14 07:02:42;;;;;;;10.77;2.30;;;;;;;19.54;54.71;100269.53;5030937;27;99246;-70
2022/09/14 07:05:14;;;;;;;15.52;2.67;;;;;;;19.69;54.40;100284.38;5031668;27;97207;-69
2022/09/14 07:07:41;;;;;;;11.32;2.80;;;;;;;19.74;54.02;100286.69;5027887;27;96901;-70
2022/09/14 07:10:10;;;;;;;15.40;2.70;;;;;;;20.18;53.09;100273.19;5026333;27;99510;-71
2022/09/14 07:12:40;;;;;;;13.48;3.30;;;;;;;20.08;52.79;100274.09;5029264;27;101253;-70
2022/09/14 07:15:11;;;;;;;10.77;2.47;;;;;;;19.93;53.30;100272.66;5025562;27;97686;-68
2022/09/14 07:17:38;;;;;;;15.27;2.67;;;;;;;20.03;53.49;100273.59;5030534;27;97378;-69
2022/09/14 07:20:06;;;;;;;31.92;3.13;;;;;;;19.84;53.67;100277.78;5024343;27;100662;-70
2022/09/14 07:22:34;;;;;;;16.23;2.95;;;;;;;20.13;53.09;100283.44;5031380;27;101153;-71
2022/09/14 07:25:02;;;;;;;18.05;3.20;;;;;;;20.40;52.24;100276.81;5025774;27;96857;-69
2022/09/14 07:27:28;;;;;;;9.00;2.47;;;;;;;20.26;52.68;100284.16;5031324;27;97592;-69
2022/09/14 07:29:59;;;;;;;7.88;2.53;;;;;;;20.01;53.27;100276.41;5023350;28;98932;-72
2022/09/14 07:32:26;;;;;;;18.23;2.70;;;;;;;20.38;52.26;100276.06;5031813;28;99142;-69
2022/09/14 07:34:53;;;;;;;13.80;2.40;;;;;;;20.52;52.04;100270.41;5030474;27;96872;-68
2022/09/14 07:37:20;;;;;;;12.23;3.05;;;;;;;20.34;52.24;100267.44;5031431;27;96948;-69
2022/09/14 07:39:47;;;;;;;11.00;3.80;;;;;;;19.95;52.97;100266.19;5028500;27;99263;-67
2022/09/14 07:42:14;;;;;;;11.52;1.90;;;;;;;20.25;52.49;100274.38;5031620;27;98581;-68
2022/09/14 07:44:41;;;;;;;12.85;2.08;;;;;;;20.50;51.34;100273.22;5028858;27;96843;-70
2022/09/14 07:47:07;;;;;;;12.95;2.25;;;;;;;20.94;50.67;100282.84;5030110;27;98860;-67
2022/09/14 07:49:35;;;;;;;11.45;2.70;;;;;;;21.48;49.50;100279.94;5025307;27;99186;-69
2022/09/14 07:52:02;;;;;;;15.63;3.33;;;;;;;21.34;49.22;100274.91;5029739;27;99151;-68
2022/09/14 07:54:30;;;;;;;11.52;2.30;;;;;;;21.05;49.61;100273.88;5026126;27;98531;-69
2022/09/14 07:56:58;;;;;;;12.20;2.53;;;;;;;21.38;48.89;100279.06;5029742;27;97023;-69
2022/09/14 07:59:24;;;;;;;13.73;1.88;;;;;;;21.74;48.15;100280.31;5022007;27;99949;-68
2022/09/14 08:01:53;;;;;;;17.45;2.13;;;;;;;21.85;47.69;100290.97;5027860;27;98768;-69
2022/09/14 08:04:20;;;;;;;13.82;2.58;;;;;;;21.78;47.50;100283.59;5011622;27;98832;-68
2022/09/14 08:06:46;;;;;;;16.02;2.50;;;;;;;21.75;47.25;100279.31;5025331;27;97317;-68
2022/09/14 08:09:14;;;;;;;12.52;2.45;;;;;;;22.04;47.04;100281.28;5021516;27;99275;-69
2022/09/14 08:11:42;;;;;;;11.77;1.95;;;;;;;22.06;46.31;100282.81;5019405;27;97547;-69
2022/09/14 08:14:19;;;;;;;23.25;6.72;;;;;;;22.10;46.36;100283.41;5026005;27;97486;-68
2022/09/14 08:17:10;;;;;;;10.48;2.65;;;;;;;22.44;45.72;100276.66;5025983;27;97034;-69
2022/09/14 08:19:38;;;;;;;7.38;2.03;;;;;;;22.78;44.96;100273.53;5015646;27;98136;-69
2022/09/14 08:22:05;;;;;;;15.63;1.80;;;;;;;22.80;44.72;100277.78;5025738;27;101522;-69
2022/09/14 08:24:32;;;;;;;10.90;1.92;;;;;;;22.36;45.21;100278.34;5026913;27;96821;-69
2022/09/14 08:26:59;;;;;;;18.35;2.53;;;;;;;22.37;44.26;100286.28;5027407;27;97887;-69
2022/09/14 08:29:27;;;;;;;12.77;1.80;;;;;;;22.06;45.23;100281.97;5027604;27;99604;-69
2022/09/14 08:31:53;;;;;;;11.90;2.33;;;;;;;21.71;45.98;100283.28;5027708;27;98781;-70
2022/09/14 08:34:21;;;;;;;9.32;1.70;;;;;;;22.29;44.59;100271.81;5027511;27;97911;-70
2022/09/14 08:36:49;;;;;;;11.82;2.08;;;;;;;22.90;44.08;100267.00;5033437;27;96851;-68
2022/09/14 08:39:18;;;;;;;12.35;2.05;;;;;;;23.56;42.34;100266.97;5029557;27;97986;-69
2022/09/14 08:41:51;;;;;;;10.93;2.30;;;;;;;23.49;41.70;100264.03;5024971;27;98486;-69
2022/09/14 08:44:29;;;;;;;12.85;2.00;;;;;;;23.39;41.31;100264.00;5024945;27;96979;-69
2022/09/14 08:47:01;;;;;;;10.85;2.58;;;;;;;23.24;40.50;100256.53;5027692;27;97960;-69
2022/09/14 08:49:42;;;;;;;10.48;1.77;;;;;;;22.90;41.49;100262.47;5028072;27;98621;-69
2022/09/14 08:52:17;;;;;;;13.35;2.22;;;;;;;22.92;41.52;100259.59;5028623;27;97441;-69
2022/09/14 08:54:44;;;;;;;7.07;1.83;;;;;;;22.98;40.98;100265.25;5023106;27;96837;-69
2022/09/14 08:57:18;;;;;;;14.73;2.85;;;;;;;23.39;41.14;100268.56;5031913;27;96967;-70
2022/09/14 08:59:56;;;;;;;21.38;4.45;;;;;;;22.80;40.81;100266.16;5025994;27;98987;-69
2022/09/14 09:02:35;;;;;;;12.13;2.80;;;;;;;22.74;41.37;100267.59;5027774;27;99208;-69
2022/09/14 09:05:23;;;;;;;9.10;2.05;;;;;;;22.32;42.44;100266.97;5028214;27;96833;-69
2022/09/14 09:08:14;;;;;;;7.63;1.40;;;;;;;22.60;41.14;100259.91;5029425;27;97953;-69
2022/09/14 09:10:41;;;;;;;12.02;1.83;;;;;;;23.09;39.72;100253.50;5028196;27;99783;-69
2022/09/14 09:13:14;;;;;;;9.85;1.63;;;;;;;22.84;39.99;100251.41;5030368;27;97749;-68
2022/09/14 09:15:47;;;;;;;9.70;1.75;;;;;;;22.50;40.96;100251.00;5027615;28;96751;-68
2022/09/14 09:18:18;;;;;;;8.82;1.70;;;;;;;22.76;41.22;100251.28;5029020;28;97037;-69
2022/09/14 09:20:49;;;;;;;13.77;2.22;;;;;;;22.58;41.07;100256.50;5027730;28;98975;-69
2022/09/14 09:23:21;;;;;;;16.15;2.38;;;;;;;23.08;40.55;100253.63;5028478;28;98751;-69
2022/09/14 09:25:55;;;;;;;12.48;2.45;;;;;;;22.89;40.48;100257.22;5029821;28;96918;-69
2022/09/14 09:28:23;;;;;;;8.52;2.08;;;;;;;23.01;40.08;100256.06;5020308;27;99115;-70
2022/09/14 09:30:52;;;;;;;13.50;1.88;;;;;;;22.64;41.01;100245.19;5028306;27;98964;-68
2022/09/14 09:33:26;;;;;;;6.25;1.60;;;;;;;22.94;40.67;100247.69;5028019;27;98069;-69
2022/09/14 09:35:55;;;;;;;9.27;1.90;;;;;;;23.05;40.29;100244.81;5030357;28;96778;-69
2022/09/14 09:38:24;;;;;;;11.02;1.95;;;;;;;23.08;38.75;100246.41;5025173;27;97330;-69
2022/09/14 09:40:57;;;;;;;11.55;2.10;;;;;;;23.88;38.03;100244.94;5027315;27;98165;-69
2022/09/14 09:43:26;;;;;;;9.25;1.85;;;;;;;23.89;37.51;100238.53;5027439;28;99138;-70
2022/09/14 09:45:59;;;;;;;18.75;2.60;;;;;;;24.39;37.30;100230.78;5027863;27;96918;-69
2022/09/14 09:48:40;;;;;;;13.18;2.05;;;;;;;24.19;36.56;100236.34;5025699;28;98207;-69
2022/09/14 09:51:12;;;;;;;11.70;1.70;;;;;;;23.72;37.87;100237.47;5026606;27;99290;-70
2022/09/14 09:53:50;;;;;;;10.30;1.98;;;;;;;23.69;37.68;100240.50;5024702;27;100407;-69
2022/09/14 09:56:19;;;;;;;6.50;1.90;;;;;;;23.49;37.73;100236.19;5028778;27;96865;-69
2022/09/14 09:58:50;;;;;;;8.57;1.70;;;;;;;23.27;37.72;100230.16;5028609;27;97548;-69
2022/09/14 10:01:27;;;;;;;7.53;1.75;;;;;;;23.29;37.91;100230.00;5030663;27;98523;-70
2022/09/14 10:04:04;;;;;;;9.38;1.65;;;;;;;22.85;38.69;100221.63;5023459;27;100026;-68
2022/09/14 10:06:31;;;;;;;5.75;1.00;;;;;;;23.41;37.86;100220.72;5027931;27;97693;-68
2022/09/14 10:09:01;;;;;;;6.95;1.42;;;;;;;23.06;38.48;100221.44;5027568;27;97327;-68
2022/09/14 10:11:36;;;;;;;7.90;1.83;;;;;;;23.30;37.46;100219.06;5020476;27;99896;-68
2022/09/14 10:14:04;;;;;;;8.00;1.43;;;;;;;23.17;37.79;100215.03;5029071;27;101132;-69
2022/09/14 10:16:39;;;;;;;8.98;1.48;;;;;;;22.95;38.20;100210.84;5027960;27;98019;-68
2022/09/14 10:19:13;;;;;;;9.00;2.00;;;;;;;22.98;36.95;100210.53;5027143;27;97303;-69
2022/09/14 10:22:05;;;;;;;6.53;1.52;;;;;;;23.18;37.34;100214.84;5025974;27;98578;-69
2022/09/14 10:24:37;;;;;;;6.68;1.45;;;;;;;23.55;36.85;100214.88;5028687;28;98399;-69
2022/09/14 10:27:40;;;;;;;14.25;1.58;;;;;;;23.41;36.81;100208.09;5028663;27;97309;-71
2022/09/14 10:30:13;;;;;;;7.20;1.35;;;;;;;23.76;37.03;100218.13;5023048;27;98366;-68
2022/09/14 10:32:45;;;;;;;9.38;2.38;;;;;;;23.66;37.15;100216.50;5027119;27;99232;-68
2022/09/14 10:35:16;;;;;;;7.35;1.80;;;;;;;23.53;36.82;100213.31;5025812;27;101470;-68
2022/09/14 10:37:56;;;;;;;7.68;2.08;;;;;;;23.97;36.64;100207.06;5023988;27;97582;-69
2022/09/14 10:40:31;;;;;;;5.70;1.20;;;;;;;24.05;36.22;100203.63;5025400;28;96763;-69
2022/09/14 10:43:11;;;;;;;10.02;1.67;;;;;;;24.60;35.26;100182.69;5031707;27;97566;-68
2022/09/14 10:45:40;;;;;;;8.07;2.00;;;;;;;24.50;35.57;100196.28;5026473;27;98966;-68
2022/09/14 10:48:44;;;;;;;7.43;1.42;;;;;;;24.38;35.38;100196.69;5025478;27;96966;-69
2022/09/14 10:51:30;;;;;;;7.50;1.38;;;;;;;23.19;37.85;100196.84;5027937;27;98607;-71
2022/09/14 10:54:10;;;;;;;7.35;1.75;;;;;;;23.70;37.09;100201.72;5027150;27;99575;-69
2022/09/14 10:56:50;;;;;;;11.75;2.13;;;;;;;23.99;36.95;100191.59;5025302;27;97786;-69
2022/09/14 10:59:31;;;;;;;6.18;2.00;;;;;;;24.30;36.21;100189.38;5018496;27;96919;-69
2022/09/14 11:02:17;;;;;;;10.02;1.58;;;;;;;24.01;36.68;100189.59;5029496;27;96891;-70
2022/09/14 11:05:01;;;;;;;7.13;1.70;;;;;;;24.43;36.08;100183.56;5029242;27;98917;-71
2022/09/14 11:07:36;;;;;;;7.60;1.70;;;;;;;24.87;35.18;100192.50;5024754;27;98899;-68
2022/09/14 11:10:17;;;;;;;11.93;1.83;;;;;;;24.58;34.97;100192.81;5028728;27;96763;-70
2022/09/14 11:12:57;;;;;;;5.28;1.30;;;;;;;24.84;35.17;100195.53;5026005;27;97808;-70
2022/09/14 11:15:35;;;;;;;6.40;2.00;;;;;;;24.84;34.97;100187.41;5021577;27;101394;-68
2022/09/14 11:18:21;;;;;;;8.05;1.80;;;;;;;24.75;35.05;100188.34;5028047;27;99177;-71
2022/09/14 11:21:02;;;;;;;10.50;1.63;;;;;;;24.78;35.08;100190.75;5020393;27;97667;-68
2022/09/14 11:23:42;;;;;;;7.78;1.45;;;;;;;24.79;34.92;100197.84;5025669;27;98899;-69
2022/09/14 11:26:16;;;;;;;5.35;1.55;;;;;;;24.38;35.67;100196.69;5026706;27;98171;-69
2022/09/14 11:28:48;;;;;;;6.15;1.58;;;;;;;24.83;34.98;100197.38;5023226;27;101133;-67
2022/09/14 11:31:22;;;;;;;7.68;1.55;;;;;;;24.41;35.49;100185.59;5026486;27;97200;-66
2022/09/14 11:33:58;;;;;;;8.80;1.67;;;;;;;24.09;36.09;100195.03;5025328;27;97865;-67
2022/09/14 11:36:31;;;;;;;4.75;1.20;;;;;;;24.70;35.20;100193.38;5026293;27;99048;-66
2022/09/14 11:39:05;;;;;;;10.63;1.55;;;;;;;24.66;35.47;100198.28;5026561;27;98888;-67